createdAt,value
2022-10-30T00:00:59.380Z,4.23
2022-10-30T00:02:30.890Z,4.33
2022-10-30T00:04:02.263Z,3.91
2022-10-30T00:05:33.847Z,4.21
2022-10-30T00:07:05.218Z,3.98
2022-10-30T00:08:36.631Z,4.15
2022-10-30T00:10:08.228Z,4.18
2022-10-30T00:11:39.823Z,4.16
2022-10-30T00:13:11.176Z,3.89
2022-10-30T00:14:42.750Z,3.69
2022-10-30T00:16:14.111Z,3.65
2022-10-30T00:17:45.517Z,3.80
2022-10-30T00:19:16.952Z,4.16
2022-10-30T00:20:48.717Z,4.45
2022-10-30T00:22:20.302Z,4.28
2022-10-30T00:23:51.655Z,4.30
2022-10-30T00:25:23.037Z,4.50
2022-10-30T00:26:54.426Z,5.01
2022-10-30T00:28:26.160Z,3.99
2022-10-30T00:29:57.632Z,4.17
2022-10-30T00:31:29.114Z,4.25
2022-10-30T00:33:00.825Z,3.91
2022-10-30T00:34:32.695Z,4.06
2022-10-30T00:36:04.055Z,3.89
2022-10-30T00:37:35.548Z,3.88
2022-10-30T00:39:07.088Z,4.19
2022-10-30T00:40:38.543Z,4.22
2022-10-30T00:42:09.948Z,3.91
2022-10-30T00:43:41.437Z,3.86
2022-10-30T00:45:12.915Z,4.95
2022-10-30T00:46:44.295Z,3.97
2022-10-30T00:48:15.838Z,3.81
2022-10-30T00:49:47.194Z,4.06
2022-10-30T00:51:18.686Z,4.88
2022-10-30T00:52:50.139Z,3.88
2022-10-30T00:54:21.784Z,4.02
2022-10-30T00:55:53.140Z,3.96
2022-10-30T00:57:24.530Z,4.15
2022-10-30T00:58:55.990Z,3.98
2022-10-30T01:00:27.542Z,4.13
2022-10-30T01:01:59.091Z,4.15
2022-10-30T01:03:30.568Z,3.83
2022-10-30T01:05:02.014Z,4.17
2022-10-30T01:06:33.631Z,4.22
2022-10-30T01:08:05.026Z,3.89
2022-10-30T01:09:36.514Z,4.05
2022-10-30T01:11:07.832Z,3.95
2022-10-30T01:12:39.240Z,4.11
2022-10-30T01:14:10.852Z,4.20
2022-10-30T01:15:42.378Z,3.97
2022-10-30T01:17:13.877Z,3.79
2022-10-30T01:18:45.255Z,3.72
2022-10-30T01:20:16.628Z,4.01
2022-10-30T01:21:49.156Z,4.20
2022-10-30T01:23:20.561Z,4.00
2022-10-30T01:24:51.991Z,4.16
2022-10-30T01:26:23.322Z,4.11
2022-10-30T01:27:59.700Z,4.08
2022-10-30T01:29:31.358Z,3.57
2022-10-30T01:31:02.777Z,4.15
2022-10-30T01:32:34.338Z,4.14
2022-10-30T01:34:06.065Z,4.52
2022-10-30T01:35:37.520Z,4.20
2022-10-30T01:37:09.032Z,3.96
2022-10-30T01:38:40.710Z,4.05
2022-10-30T01:40:12.132Z,3.94
2022-10-30T01:41:43.522Z,3.68
2022-10-30T01:43:14.957Z,4.00
2022-10-30T01:44:46.416Z,3.79
2022-10-30T01:46:17.770Z,3.86
2022-10-30T01:47:49.424Z,4.33
2022-10-30T01:49:20.922Z,4.31
2022-10-30T01:50:52.326Z,4.14
2022-10-30T01:52:23.684Z,4.38
2022-10-30T01:53:55.039Z,4.12
2022-10-30T01:55:26.563Z,3.99
2022-10-30T01:56:57.958Z,4.01
2022-10-30T01:58:29.559Z,3.96
2022-10-30T02:00:01.005Z,3.92
2022-10-30T02:01:32.512Z,3.95
2022-10-30T02:03:04.022Z,4.02
2022-10-30T02:04:35.411Z,4.23
2022-10-30T02:06:11.800Z,4.20
2022-10-30T02:07:43.235Z,4.02
2022-10-30T02:09:14.674Z,4.20
2022-10-30T02:10:46.192Z,4.19
2022-10-30T02:12:17.690Z,4.10
2022-10-30T02:13:49.061Z,4.47
2022-10-30T02:15:20.399Z,4.04
2022-10-30T02:16:51.867Z,4.12
2022-10-30T02:18:23.320Z,4.33
2022-10-30T02:19:55.010Z,4.25
2022-10-30T02:21:26.425Z,4.58
2022-10-30T02:22:59.346Z,4.62
2022-10-30T02:24:31.262Z,3.88
2022-10-30T02:26:02.673Z,4.31
2022-10-30T02:27:34.336Z,4.28
2022-10-30T02:29:05.787Z,4.10
2022-10-30T02:30:37.612Z,4.24
2022-10-30T02:32:09.047Z,4.06
2022-10-30T02:33:40.436Z,3.95
2022-10-30T02:35:11.965Z,4.40
2022-10-30T02:36:43.520Z,3.97
2022-10-30T02:38:15.993Z,4.46
2022-10-30T02:39:47.521Z,4.50
2022-10-30T02:41:18.900Z,4.42
2022-10-30T02:42:50.421Z,4.21
2022-10-30T02:44:21.906Z,3.95
2022-10-30T02:45:53.934Z,4.29
2022-10-30T02:47:25.260Z,4.75
2022-10-30T02:48:56.650Z,4.30
2022-10-30T02:50:28.089Z,4.36
2022-10-30T02:51:59.726Z,4.09
2022-10-30T02:53:31.175Z,4.23
2022-10-30T02:55:02.614Z,3.94
2022-10-30T02:56:34.106Z,4.33
2022-10-30T02:58:05.600Z,3.95
2022-10-30T02:59:37.181Z,4.09
2022-10-30T03:01:08.637Z,4.19
2022-10-30T03:02:40.262Z,4.22
2022-10-30T03:04:11.796Z,4.53
2022-10-30T03:05:43.460Z,4.19
2022-10-30T03:07:14.915Z,4.31
2022-10-30T03:08:46.431Z,4.34
2022-10-30T03:10:17.981Z,4.61
2022-10-30T03:11:49.524Z,4.04
2022-10-30T03:13:20.872Z,3.86
2022-10-30T03:14:52.420Z,4.15
2022-10-30T03:16:23.748Z,4.47
2022-10-30T03:17:55.488Z,4.17
2022-10-30T03:19:27.321Z,4.08
2022-10-30T03:20:58.966Z,4.56
2022-10-30T03:22:30.611Z,4.00
2022-10-30T03:24:01.975Z,3.87
2022-10-30T03:25:33.593Z,4.06
2022-10-30T03:27:05.020Z,4.16
2022-10-30T03:28:36.381Z,4.51
2022-10-30T03:30:08.268Z,4.18
2022-10-30T03:31:39.758Z,4.59
2022-10-30T03:33:11.195Z,4.30
2022-10-30T03:34:42.648Z,4.38
2022-10-30T03:36:13.965Z,4.57
2022-10-30T03:37:45.648Z,4.41
2022-10-30T03:39:17.079Z,4.63
2022-10-30T03:40:48.835Z,4.54
2022-10-30T03:42:20.261Z,4.20
2022-10-30T03:43:51.669Z,4.10
2022-10-30T03:45:23.123Z,4.23
2022-10-30T03:46:54.448Z,4.14
2022-10-30T03:48:25.865Z,4.33
2022-10-30T03:49:57.297Z,4.18
2022-10-30T03:51:29.020Z,4.32
2022-10-30T03:53:00.612Z,4.42
2022-10-30T03:54:31.949Z,4.36
2022-10-30T03:56:03.524Z,4.13
2022-10-30T03:57:35.071Z,4.39
2022-10-30T03:59:06.678Z,4.06
2022-10-30T04:00:38.041Z,4.80
2022-10-30T04:02:09.488Z,4.27
2022-10-30T04:03:41.081Z,4.30
2022-10-30T04:05:12.395Z,3.91
2022-10-30T04:06:43.729Z,4.26
2022-10-30T04:08:15.048Z,4.27
2022-10-30T04:09:46.397Z,4.29
2022-10-30T04:11:18.153Z,4.26
2022-10-30T04:12:49.951Z,4.19
2022-10-30T04:14:21.340Z,4.39
2022-10-30T04:15:56.298Z,4.27
2022-10-30T04:17:29.353Z,4.16
2022-10-30T04:19:00.759Z,4.36
2022-10-30T04:20:32.196Z,4.73
2022-10-30T04:22:03.697Z,4.32
2022-10-30T04:23:35.179Z,4.72
2022-10-30T04:25:06.874Z,4.23
2022-10-30T04:26:38.255Z,4.53
2022-10-30T04:28:09.538Z,4.24
2022-10-30T04:29:41.116Z,4.56
2022-10-30T04:31:12.527Z,4.51
2022-10-30T04:32:43.953Z,4.31
2022-10-30T04:34:15.289Z,5.02
2022-10-30T04:35:46.706Z,4.69
2022-10-30T04:37:18.025Z,4.23
2022-10-30T04:38:49.449Z,4.35
2022-10-30T04:40:20.854Z,4.64
2022-10-30T04:41:52.279Z,4.75
2022-10-30T04:43:24.205Z,4.73
2022-10-30T04:44:55.616Z,4.58
2022-10-30T04:46:27.115Z,4.68
2022-10-30T04:47:58.970Z,4.62
2022-10-30T04:49:30.552Z,4.86
2022-10-30T04:51:02.041Z,5.00
2022-10-30T04:52:33.434Z,4.83
2022-10-30T04:54:04.807Z,4.90
2022-10-30T04:55:36.569Z,5.05
2022-10-30T04:57:07.963Z,5.01
2022-10-30T04:58:39.403Z,4.87
2022-10-30T05:00:10.684Z,4.80
2022-10-30T05:01:42.396Z,5.06
2022-10-30T05:03:13.911Z,4.75
2022-10-30T05:04:45.279Z,4.77
2022-10-30T05:06:17.211Z,4.65
2022-10-30T05:07:48.719Z,5.11
2022-10-30T05:09:20.139Z,5.10
2022-10-30T05:10:51.566Z,4.73
2022-10-30T05:12:22.881Z,4.85
2022-10-30T05:13:54.238Z,4.71
2022-10-30T05:15:25.665Z,4.62
2022-10-30T05:16:57.148Z,5.26
2022-10-30T05:18:28.658Z,4.80
2022-10-30T05:20:00.004Z,4.74
2022-10-30T05:21:31.506Z,4.91
2022-10-30T05:23:03.011Z,4.66
2022-10-30T05:24:34.425Z,4.61
2022-10-30T05:26:06.371Z,5.18
2022-10-30T05:27:37.911Z,5.03
2022-10-30T05:29:09.385Z,5.09
2022-10-30T05:30:41.027Z,5.35
2022-10-30T05:33:43.928Z,4.85
2022-10-30T05:35:15.500Z,4.80
2022-10-30T05:36:46.958Z,4.93
2022-10-30T05:38:19.730Z,4.68
2022-10-30T05:39:51.194Z,5.25
2022-10-30T05:41:22.999Z,4.83
2022-10-30T05:42:54.306Z,4.65
2022-10-30T05:44:47.331Z,5.06
2022-10-30T05:46:30.456Z,5.00
2022-10-30T05:48:02.270Z,4.74
2022-10-30T05:49:33.973Z,5.44
2022-10-30T05:51:05.450Z,5.07
2022-10-30T05:52:36.782Z,4.94
2022-10-30T05:54:18.115Z,5.05
2022-10-30T05:55:49.433Z,4.88
2022-10-30T05:57:21.080Z,4.80
2022-10-30T05:58:52.616Z,4.58
2022-10-30T06:00:23.916Z,4.83
2022-10-30T06:01:55.246Z,5.28
2022-10-30T06:03:26.843Z,5.05
2022-10-30T06:04:58.238Z,4.68
2022-10-30T06:06:29.569Z,5.23
2022-10-30T06:08:00.984Z,7.96
2022-10-30T06:09:32.661Z,6.06
2022-10-30T06:11:04.079Z,5.48
2022-10-30T06:12:35.468Z,5.08
2022-10-30T06:14:07.260Z,5.28
2022-10-30T06:15:38.705Z,4.87
2022-10-30T06:17:10.076Z,5.09
2022-10-30T06:18:41.424Z,4.68
2022-10-30T06:20:12.912Z,4.63
2022-10-30T06:21:44.301Z,4.77
2022-10-30T06:23:15.635Z,5.07
2022-10-30T06:24:47.114Z,4.73
2022-10-30T06:26:18.401Z,5.01
2022-10-30T06:27:49.799Z,5.01
2022-10-30T06:29:21.152Z,4.74
2022-10-30T06:30:52.928Z,4.96
2022-10-30T06:32:24.684Z,4.85
2022-10-30T06:33:56.153Z,4.87
2022-10-30T06:35:27.662Z,4.69
2022-10-30T06:36:59.226Z,5.00
2022-10-30T06:38:30.673Z,4.71
2022-10-30T06:40:02.058Z,4.73
2022-10-30T06:41:33.380Z,4.72
2022-10-30T06:43:04.907Z,4.96
2022-10-30T06:44:36.312Z,4.72
2022-10-30T06:47:39.435Z,5.45
2022-10-30T06:49:10.864Z,5.35
2022-10-30T06:50:42.457Z,5.24
2022-10-30T06:52:13.820Z,5.34
2022-10-30T06:53:45.191Z,5.16
2022-10-30T06:55:18.805Z,4.73
2022-10-30T06:56:50.155Z,4.57
2022-10-30T06:59:07.638Z,4.62
2022-10-30T07:00:39.118Z,5.00
2022-10-30T07:02:11.265Z,5.18
2022-10-30T07:03:42.874Z,5.05
2022-10-30T07:05:14.305Z,4.94
2022-10-30T07:06:45.696Z,4.87
2022-10-30T07:08:17.091Z,4.91
2022-10-30T07:09:48.589Z,4.76
2022-10-30T07:11:19.872Z,4.67
2022-10-30T07:12:51.303Z,4.80
2022-10-30T07:14:22.659Z,4.80
2022-10-30T07:15:54.050Z,4.46
2022-10-30T07:17:25.383Z,4.81
2022-10-30T07:18:59.359Z,4.92
2022-10-30T07:20:33.719Z,4.78
2022-10-30T07:22:05.600Z,4.78
2022-10-30T07:23:37.100Z,5.07
2022-10-30T07:25:08.353Z,4.94
2022-10-30T07:26:39.696Z,4.70
2022-10-30T07:28:11.012Z,4.96
2022-10-30T07:29:42.308Z,5.04
2022-10-30T07:31:17.193Z,5.07
2022-10-30T07:32:56.194Z,4.97
2022-10-30T07:34:27.810Z,5.06
2022-10-30T07:35:59.322Z,5.54
2022-10-30T07:37:30.634Z,5.73
2022-10-30T07:39:02.246Z,5.87
2022-10-30T07:40:33.633Z,5.32
2022-10-30T07:42:05.021Z,5.54
2022-10-30T07:43:36.402Z,5.10
2022-10-30T07:45:07.687Z,5.31
2022-10-30T07:46:39.310Z,5.33
2022-10-30T07:48:11.794Z,5.68
2022-10-30T07:49:44.121Z,5.32
2022-10-30T07:51:15.900Z,5.35
2022-10-30T07:52:47.360Z,5.00
2022-10-30T07:54:18.817Z,5.43
2022-10-30T07:55:50.125Z,5.15
2022-10-30T07:57:21.537Z,5.49
2022-10-30T07:58:53.147Z,5.73
2022-10-30T08:00:24.594Z,5.32
2022-10-30T08:01:56.216Z,4.94
2022-10-30T08:03:28.146Z,5.18
2022-10-30T08:04:59.538Z,5.36
2022-10-30T08:06:30.916Z,5.12
2022-10-30T08:08:02.724Z,5.57
2022-10-30T08:09:34.203Z,4.90
2022-10-30T08:11:05.576Z,5.17
2022-10-30T08:12:37.112Z,5.14
2022-10-30T08:14:08.712Z,5.16
2022-10-30T08:15:40.070Z,5.50
2022-10-30T08:17:11.660Z,5.34
2022-10-30T08:18:43.213Z,5.23
2022-10-30T08:20:14.643Z,5.81
2022-10-30T08:21:46.013Z,4.98
2022-10-30T08:23:17.347Z,4.86
2022-10-30T08:24:49.683Z,5.13
2022-10-30T08:26:21.177Z,5.26
2022-10-30T08:27:53.551Z,5.00
2022-10-30T08:29:24.918Z,4.97
2022-10-30T08:30:56.239Z,5.23
2022-10-30T08:32:27.678Z,5.36
2022-10-30T08:33:59.038Z,5.19
2022-10-30T08:35:30.672Z,5.39
2022-10-30T08:37:02.236Z,4.75
2022-10-30T08:38:33.566Z,4.90
2022-10-30T08:40:05.376Z,5.14
2022-10-30T08:41:36.954Z,5.32
2022-10-30T08:43:08.589Z,5.28
2022-10-30T08:44:40.048Z,4.86
2022-10-30T08:46:11.376Z,4.77
2022-10-30T08:47:42.780Z,4.99
2022-10-30T08:49:14.050Z,4.90
2022-10-30T08:50:45.415Z,5.30
2022-10-30T08:52:16.783Z,5.00
2022-10-30T08:53:48.294Z,5.08
2022-10-30T08:55:19.620Z,5.00
2022-10-30T08:56:51.137Z,4.83
2022-10-30T08:58:24.756Z,4.64
2022-10-30T08:59:56.106Z,4.84
2022-10-30T09:01:27.542Z,5.11
2022-10-30T09:02:59.681Z,4.97
2022-10-30T09:04:31.289Z,4.69
2022-10-30T09:06:02.592Z,4.66
2022-10-30T09:07:34.113Z,4.68
2022-10-30T09:09:05.450Z,4.53
2022-10-30T09:10:36.900Z,4.64
2022-10-30T09:12:08.169Z,4.62
2022-10-30T09:13:39.628Z,4.84
2022-10-30T09:15:10.969Z,4.75
2022-10-30T09:16:42.431Z,4.47
2022-10-30T09:18:13.961Z,4.69
2022-10-30T09:19:45.713Z,4.54
2022-10-30T09:21:17.186Z,4.92
2022-10-30T09:22:48.951Z,4.74
2022-10-30T09:24:20.359Z,4.45
2022-10-30T09:25:51.926Z,4.77
2022-10-30T09:27:23.354Z,4.71
2022-10-30T09:28:54.688Z,4.59
2022-10-30T09:30:26.032Z,4.73
2022-10-30T09:31:57.386Z,4.62
2022-10-30T09:33:28.905Z,4.78
2022-10-30T09:35:00.242Z,4.95
2022-10-30T09:36:31.659Z,4.58
2022-10-30T09:38:03.168Z,4.58
2022-10-30T09:39:34.862Z,4.44
2022-10-30T09:41:06.322Z,6.58
2022-10-30T09:42:37.989Z,5.50
2022-10-30T09:44:09.413Z,5.10
2022-10-30T09:45:40.878Z,4.83
2022-10-30T09:47:12.269Z,4.75
2022-10-30T09:48:43.774Z,4.96
2022-10-30T09:50:15.171Z,4.56
2022-10-30T09:51:51.571Z,4.42
2022-10-30T09:53:23.079Z,4.85
2022-10-30T09:54:54.620Z,4.43
2022-10-30T09:56:25.953Z,4.45
2022-10-30T09:57:57.564Z,4.57
2022-10-30T09:59:29.295Z,4.88
2022-10-30T10:01:06.122Z,4.79
2022-10-30T10:02:38.709Z,4.73
2022-10-30T10:04:10.163Z,4.76
2022-10-30T10:05:41.718Z,4.38
2022-10-30T10:07:13.235Z,4.54
2022-10-30T10:08:44.685Z,4.40
2022-10-30T10:10:16.264Z,4.75
2022-10-30T10:11:47.806Z,5.08
2022-10-30T10:13:19.989Z,4.86
2022-10-30T10:14:51.714Z,4.59
2022-10-30T10:16:23.230Z,4.62
2022-10-30T10:17:54.762Z,4.70
2022-10-30T10:19:26.187Z,4.41
2022-10-30T10:20:57.897Z,4.55
2022-10-30T10:22:29.284Z,4.41
2022-10-30T10:24:00.963Z,4.54
2022-10-30T10:25:32.494Z,4.71
2022-10-30T10:27:04.258Z,4.55
2022-10-30T10:28:36.856Z,4.74
2022-10-30T10:30:08.465Z,4.28
2022-10-30T10:31:56.823Z,4.27
2022-10-30T10:33:51.269Z,4.22
2022-10-30T10:35:30.828Z,4.77
2022-10-30T10:37:02.463Z,4.33
2022-10-30T10:38:33.889Z,4.14
2022-10-30T10:40:15.339Z,4.06
2022-10-30T10:41:52.543Z,4.57
2022-10-30T10:43:35.213Z,4.35
2022-10-30T10:45:06.600Z,4.36
2022-10-30T10:46:38.168Z,4.51
2022-10-30T10:48:09.764Z,4.50
2022-10-30T10:49:44.209Z,4.57
2022-10-30T10:51:15.737Z,4.56
2022-10-30T10:52:47.559Z,4.67
2022-10-30T10:54:19.061Z,3.97
2022-10-30T10:55:50.629Z,4.13
2022-10-30T10:57:23.099Z,4.40
2022-10-30T10:58:59.620Z,4.46
2022-10-30T11:00:41.182Z,4.44
2022-10-30T11:02:12.854Z,4.40
2022-10-30T11:03:44.471Z,4.27
2022-10-30T11:05:16.002Z,4.18
2022-10-30T11:06:47.478Z,4.51
2022-10-30T11:08:19.024Z,4.48
2022-10-30T11:09:56.634Z,4.47
2022-10-30T11:11:28.133Z,4.33
2022-10-30T11:13:00.201Z,4.36
2022-10-30T11:14:46.993Z,4.22
2022-10-30T11:16:18.480Z,4.26
2022-10-30T11:17:50.036Z,4.00
2022-10-30T11:19:21.554Z,3.95
2022-10-30T11:20:53.198Z,3.86
2022-10-30T11:22:24.664Z,3.93
2022-10-30T11:23:56.202Z,3.94
2022-10-30T11:25:31.228Z,3.57
2022-10-30T11:27:02.992Z,3.74
2022-10-30T11:32:32.989Z,3.63
2022-10-30T11:34:04.571Z,3.52
2022-10-30T11:35:42.933Z,3.78
2022-10-30T11:37:14.770Z,4.04
2022-10-30T11:38:46.952Z,3.74
2022-10-30T11:40:23.524Z,3.69
2022-10-30T11:41:55.612Z,3.84
2022-10-30T11:43:27.178Z,3.54
2022-10-30T11:44:58.663Z,3.90
2022-10-30T11:46:30.176Z,3.57
2022-10-30T11:48:16.923Z,3.51
2022-10-30T11:49:48.639Z,3.66
2022-10-30T11:51:35.253Z,3.82
2022-10-30T11:53:06.765Z,3.88
2022-10-30T11:55:03.293Z,3.91
2022-10-30T11:56:44.739Z,3.50
2022-10-30T11:58:16.544Z,3.37
2022-10-30T11:59:48.060Z,3.60
2022-10-30T12:01:36.223Z,3.37
2022-10-30T12:03:18.033Z,3.61
2022-10-30T12:05:09.457Z,3.67
2022-10-30T12:07:10.059Z,3.62
2022-10-30T12:08:51.836Z,3.64
2022-10-30T12:10:23.409Z,3.46
2022-10-30T12:11:54.932Z,3.36
2022-10-30T12:13:31.418Z,3.32
2022-10-30T12:15:25.735Z,3.48
2022-10-30T12:16:57.868Z,3.96
2022-10-30T12:18:49.745Z,3.47
2022-10-30T12:20:57.931Z,3.27
2022-10-30T12:22:29.505Z,3.57
2022-10-30T12:24:10.966Z,3.20
2022-10-30T12:25:43.942Z,3.83
2022-10-30T12:27:19.704Z,3.64
2022-10-30T12:28:54.051Z,3.53
2022-10-30T12:30:25.564Z,3.33
2022-10-30T12:31:57.066Z,3.64
2022-10-30T12:33:28.618Z,3.57
2022-10-30T12:35:00.125Z,3.69
2022-10-30T12:36:31.645Z,3.82
2022-10-30T12:38:03.417Z,3.59
2022-10-30T12:39:34.963Z,3.45
2022-10-30T12:41:11.471Z,3.48
2022-10-30T12:42:43.148Z,3.47
2022-10-30T12:44:14.715Z,3.51
2022-10-30T12:45:46.307Z,3.55
2022-10-30T12:47:18.090Z,3.61
2022-10-30T12:48:49.569Z,3.45
2022-10-30T12:50:21.089Z,3.49
2022-10-30T12:51:52.594Z,3.44
2022-10-30T12:53:24.104Z,3.74
2022-10-30T12:54:55.682Z,4.17
2022-10-30T12:56:27.166Z,4.36
2022-10-30T12:57:58.848Z,4.41
2022-10-30T12:59:30.322Z,3.95
2022-10-30T13:01:02.168Z,3.78
2022-10-30T13:02:33.960Z,3.98
2022-10-30T13:04:05.503Z,3.88
2022-10-30T13:05:37.013Z,3.59
2022-10-30T13:07:08.640Z,3.51
2022-10-30T13:08:40.168Z,3.41
2022-10-30T13:10:11.693Z,3.92
2022-10-30T13:11:43.243Z,3.53
2022-10-30T13:13:14.778Z,3.75
2022-10-30T13:14:46.253Z,4.12
2022-10-30T13:16:17.850Z,3.55
2022-10-30T13:17:49.298Z,3.78
2022-10-30T13:19:20.774Z,3.94
2022-10-30T13:20:52.284Z,3.61
2022-10-30T13:22:23.725Z,3.27
2022-10-30T13:23:55.337Z,3.23
2022-10-30T13:25:27.190Z,3.89
2022-10-30T13:26:58.727Z,3.50
2022-10-30T13:28:30.213Z,3.67
2022-10-30T13:30:01.782Z,3.68
2022-10-30T13:31:33.227Z,3.60
2022-10-30T13:33:05.154Z,4.22
2022-10-30T13:34:36.864Z,3.80
2022-10-30T13:36:08.271Z,3.41
2022-10-30T13:37:39.753Z,3.59
2022-10-30T13:39:11.513Z,3.53
2022-10-30T13:40:42.982Z,4.10
2022-10-30T13:42:14.489Z,3.64
2022-10-30T13:43:45.954Z,3.53
2022-10-30T13:45:17.561Z,3.38
2022-10-30T13:46:49.093Z,3.11
2022-10-30T13:48:20.568Z,3.60
2022-10-30T13:49:57.001Z,3.88
2022-10-30T13:51:28.444Z,3.69
2022-10-30T13:53:00.182Z,3.40
2022-10-30T13:54:32.007Z,3.92
2022-10-30T13:56:03.422Z,4.10
2022-10-30T13:57:34.900Z,4.02
2022-10-30T13:59:06.359Z,3.60
2022-10-30T14:00:37.949Z,3.44
2022-10-30T14:02:09.474Z,3.44
2022-10-30T14:03:42.166Z,3.50
2022-10-30T14:05:13.723Z,4.03
2022-10-30T14:06:45.164Z,3.73
2022-10-30T14:08:16.713Z,3.88
2022-10-30T14:09:48.149Z,3.87
2022-10-30T14:11:19.786Z,3.98
2022-10-30T14:12:51.216Z,4.15
2022-10-30T14:14:22.651Z,3.85
2022-10-30T14:15:54.254Z,3.90
2022-10-30T14:17:25.840Z,3.93
2022-10-30T14:18:57.502Z,4.10
2022-10-30T14:20:33.955Z,3.43
2022-10-30T14:22:05.531Z,3.61
2022-10-30T14:23:37.557Z,3.54
2022-10-30T14:25:08.968Z,3.38
2022-10-30T14:26:40.527Z,3.54
2022-10-30T14:28:12.010Z,3.96
2022-10-30T14:29:43.679Z,3.69
2022-10-30T14:31:15.209Z,4.01
2022-10-30T14:32:59.990Z,3.87
2022-10-30T14:34:31.583Z,3.76
2022-10-30T14:36:03.051Z,3.85
2022-10-30T14:37:34.559Z,3.90
2022-10-30T14:39:06.027Z,3.71
2022-10-30T14:40:42.644Z,3.99
2022-10-30T14:42:45.868Z,3.76
2022-10-30T14:44:22.565Z,3.82
2022-10-30T14:45:54.305Z,4.07
2022-10-30T14:47:25.742Z,4.13
2022-10-30T14:49:24.154Z,3.85
2022-10-30T14:51:01.112Z,3.78
2022-10-30T14:52:32.551Z,3.61
2022-10-30T14:54:14.322Z,3.61
2022-10-30T14:56:10.835Z,3.97
2022-10-30T14:57:42.730Z,3.74
2022-10-30T14:59:14.187Z,3.40
2022-10-30T15:00:45.713Z,3.63
2022-10-30T15:02:17.293Z,3.47
2022-10-30T15:03:54.199Z,4.45
2022-10-30T15:05:35.994Z,4.02
2022-10-30T15:07:07.878Z,3.75
2022-10-30T15:08:39.324Z,3.77
2022-10-30T15:10:10.706Z,3.49
2022-10-30T15:11:42.666Z,3.76
2022-10-30T15:13:14.134Z,3.84
2022-10-30T15:14:54.056Z,4.34
2022-10-30T15:16:26.165Z,4.01
2022-10-30T15:18:07.678Z,3.78
2022-10-30T15:19:39.134Z,4.04
2022-10-30T15:21:10.651Z,3.90
2022-10-30T15:22:42.221Z,3.57
2022-10-30T15:24:13.669Z,3.84
2022-10-30T15:25:45.384Z,4.14
2022-10-30T15:27:16.857Z,4.39
2022-10-30T15:28:48.385Z,4.19
2022-10-30T15:30:19.966Z,3.98
2022-10-30T15:32:17.331Z,4.03
2022-10-30T15:33:49.030Z,3.86
2022-10-30T15:35:20.494Z,3.82
2022-10-30T15:36:52.602Z,3.40
2022-10-30T15:38:24.043Z,3.79
2022-10-30T15:40:05.489Z,3.88
2022-10-30T15:41:36.894Z,3.74
2022-10-30T15:43:08.692Z,3.53
2022-10-30T15:44:40.133Z,3.78
2022-10-30T15:46:11.520Z,3.72
2022-10-30T15:47:45.543Z,3.86
2022-10-30T15:49:17.190Z,3.54
2022-10-30T15:50:48.753Z,3.49
2022-10-30T15:52:20.295Z,3.76
2022-10-30T15:53:51.741Z,3.67
2022-10-30T15:55:23.245Z,3.88
2022-10-30T15:57:27.485Z,4.07
2022-10-30T15:59:03.217Z,3.84
2022-10-30T16:00:34.777Z,3.66
2022-10-30T16:02:06.505Z,3.78
2022-10-30T16:03:38.354Z,3.60
2022-10-30T16:05:10.967Z,3.46
2022-10-30T16:06:42.609Z,3.53
2022-10-30T16:08:14.298Z,3.40
2022-10-30T16:09:45.787Z,3.84
2022-10-30T16:11:17.206Z,3.22
2022-10-30T16:12:48.883Z,3.80
2022-10-30T16:14:20.304Z,3.50
2022-10-30T16:15:51.792Z,3.28
2022-10-30T16:17:23.152Z,3.21
2022-10-30T16:18:54.740Z,3.73
2022-10-30T16:20:26.287Z,3.63
2022-10-30T16:21:58.154Z,3.23
2022-10-30T16:23:30.904Z,3.56
2022-10-30T16:25:02.329Z,3.59
2022-10-30T16:26:33.881Z,3.23
2022-10-30T16:28:05.337Z,3.39
2022-10-30T16:29:36.749Z,3.77
2022-10-30T16:31:08.324Z,3.58
2022-10-30T16:32:39.839Z,3.52
2022-10-30T16:34:11.263Z,3.54
2022-10-30T16:35:42.661Z,3.49
2022-10-30T16:37:35.598Z,3.49
2022-10-30T16:39:08.354Z,3.60
2022-10-30T16:41:09.916Z,3.62
2022-10-30T16:43:06.323Z,3.76
2022-10-30T16:44:38.440Z,3.53
2022-10-30T16:46:09.973Z,3.66
2022-10-30T16:47:41.538Z,3.74
2022-10-30T16:49:33.182Z,3.98
2022-10-30T16:51:37.648Z,3.75
2022-10-30T16:53:44.196Z,3.95
2022-10-30T16:55:36.817Z,3.58
2022-10-30T16:57:08.429Z,3.51
2022-10-30T16:59:09.908Z,3.51
2022-10-30T17:00:46.337Z,3.61
2022-10-30T17:02:18.030Z,3.37
2022-10-30T17:03:50.605Z,3.39
2022-10-30T17:05:22.073Z,3.48
2022-10-30T17:06:53.454Z,3.78
2022-10-30T17:08:24.899Z,3.73
2022-10-30T17:09:56.495Z,4.07
2022-10-30T17:11:28.120Z,4.08
2022-10-30T17:12:59.479Z,3.80
2022-10-30T17:14:30.920Z,4.13
2022-10-30T17:16:02.556Z,4.18
2022-10-30T17:17:34.049Z,4.67
2022-10-30T17:19:06.193Z,4.48
2022-10-30T17:20:37.619Z,4.19
2022-10-30T17:22:43.041Z,4.08
2022-10-30T17:24:14.461Z,4.64
2022-10-30T17:25:45.823Z,4.58
2022-10-30T17:27:22.431Z,4.46
2022-10-30T17:28:53.868Z,4.08
2022-10-30T17:30:25.389Z,4.01
2022-10-30T17:31:56.855Z,3.75
2022-10-30T17:33:28.416Z,3.57
2022-10-30T17:35:00.764Z,3.58
2022-10-30T17:36:32.435Z,4.04
2022-10-30T17:38:04.393Z,4.06
2022-10-30T17:39:41.021Z,4.66
2022-10-30T17:41:12.587Z,4.22
2022-10-30T17:42:44.036Z,3.87
2022-10-30T17:44:15.417Z,3.81
2022-10-30T17:45:47.050Z,3.64
2022-10-30T17:47:18.609Z,3.66
2022-10-30T17:48:50.011Z,3.64
2022-10-30T17:50:21.772Z,3.81
2022-10-30T17:51:53.369Z,3.82
2022-10-30T17:53:25.097Z,3.94
2022-10-30T17:54:56.697Z,4.13
2022-10-30T17:56:28.224Z,3.79
2022-10-30T17:57:59.569Z,3.64
2022-10-30T17:59:30.952Z,3.78
2022-10-30T18:01:02.508Z,3.82
2022-10-30T18:02:51.825Z,3.64
2022-10-30T18:05:03.246Z,3.72
2022-10-30T18:06:55.644Z,3.92
2022-10-30T18:08:27.093Z,4.02
2022-10-30T18:09:58.615Z,3.76
2022-10-30T18:11:30.077Z,4.08
2022-10-30T18:13:01.780Z,3.67
2022-10-30T18:14:33.481Z,4.16
2022-10-30T18:16:04.903Z,3.89
2022-10-30T18:17:36.267Z,3.75
2022-10-30T18:19:07.759Z,4.06
2022-10-30T18:21:07.459Z,3.90
2022-10-30T18:22:38.896Z,3.77
2022-10-30T18:24:10.266Z,4.15
2022-10-30T18:25:41.962Z,3.85
2022-10-30T18:27:13.355Z,4.09
2022-10-30T18:28:44.722Z,3.95
2022-10-30T18:30:16.296Z,4.12
2022-10-30T18:31:47.642Z,4.02
2022-10-30T18:33:19.033Z,4.12
2022-10-30T18:34:50.674Z,3.85
2022-10-30T18:36:22.174Z,4.15
2022-10-30T18:37:53.796Z,3.93
2022-10-30T18:39:25.253Z,3.70
2022-10-30T18:41:06.671Z,4.20
2022-10-30T18:42:38.115Z,4.07
2022-10-30T18:44:09.398Z,3.83
2022-10-30T18:45:40.796Z,4.03
2022-10-30T18:47:12.175Z,3.91
2022-10-30T18:48:43.617Z,4.21
2022-10-30T18:50:15.024Z,4.07
2022-10-30T18:51:46.344Z,4.04
2022-10-30T18:53:17.674Z,4.08
2022-10-30T18:54:49.266Z,3.83
2022-10-30T18:56:20.964Z,4.45
2022-10-30T18:57:52.689Z,4.46
2022-10-30T18:59:24.603Z,4.66
2022-10-30T19:01:11.644Z,4.66
2022-10-30T19:02:44.444Z,5.24
2022-10-30T19:04:23.077Z,4.49
2022-10-30T19:05:54.637Z,4.95
2022-10-30T19:07:26.128Z,5.15
2022-10-30T19:08:57.887Z,4.98
2022-10-30T19:10:29.492Z,4.63
2022-10-30T19:12:01.327Z,6.31
2022-10-30T19:13:32.868Z,5.45
2022-10-30T19:15:04.394Z,5.71
2022-10-30T19:16:35.744Z,4.98
2022-10-30T19:18:12.204Z,4.77
2022-10-30T19:19:43.670Z,5.01
2022-10-30T19:21:16.100Z,5.23
2022-10-30T19:22:47.598Z,4.81
2022-10-30T19:24:18.936Z,4.25
2022-10-30T19:25:50.562Z,4.69
2022-10-30T19:27:22.511Z,4.35
2022-10-30T19:28:54.090Z,4.62
2022-10-30T19:30:25.459Z,4.18
2022-10-30T19:31:56.808Z,4.35
2022-10-30T19:33:28.277Z,4.34
2022-10-30T19:35:24.902Z,4.96
2022-10-30T19:37:16.310Z,4.56
2022-10-30T19:38:52.684Z,4.25
2022-10-30T19:40:24.029Z,4.12
2022-10-30T19:41:55.576Z,4.50
2022-10-30T19:44:02.864Z,4.64
2022-10-30T19:45:34.245Z,4.22
2022-10-30T19:47:05.711Z,4.52
2022-10-30T19:48:57.394Z,4.48
2022-10-30T19:50:29.918Z,4.23
2022-10-30T19:52:11.395Z,4.30
2022-10-30T19:53:42.804Z,4.09
2022-10-30T19:55:14.249Z,4.18
2022-10-30T19:56:45.716Z,4.08
2022-10-30T19:58:19.628Z,4.13
2022-10-30T19:59:52.429Z,4.75
2022-10-30T20:01:23.919Z,9.62
2022-10-30T20:02:55.554Z,6.44
2022-10-30T20:04:26.981Z,5.32
2022-10-30T20:05:58.472Z,5.43
2022-10-30T20:07:29.823Z,4.89
2022-10-30T20:09:01.216Z,4.38
2022-10-30T20:10:32.607Z,4.65
2022-10-30T20:12:04.037Z,4.54
2022-10-30T20:13:35.380Z,4.50
2022-10-30T20:15:06.959Z,4.27
2022-10-30T20:16:38.290Z,4.70
2022-10-30T20:18:09.696Z,4.23
2022-10-30T20:19:41.146Z,4.46
2022-10-30T20:21:13.887Z,4.24
2022-10-30T20:22:45.544Z,4.48
2022-10-30T20:24:16.913Z,4.31
2022-10-30T20:25:48.444Z,4.24
2022-10-30T20:27:19.850Z,4.28
2022-10-30T20:28:51.280Z,4.39
2022-10-30T20:30:22.800Z,4.28
2022-10-30T20:31:54.204Z,3.89
2022-10-30T20:33:30.813Z,4.44
2022-10-30T20:35:04.221Z,4.20
2022-10-30T20:36:38.688Z,4.04
2022-10-30T20:38:10.053Z,4.18
2022-10-30T20:39:41.506Z,4.67
2022-10-30T20:41:13.025Z,4.65
2022-10-30T20:42:44.574Z,4.52
2022-10-30T20:44:16.154Z,4.55
2022-10-30T20:45:47.466Z,4.89
2022-10-30T20:47:18.879Z,4.70